createdAt,value
2023-02-18T00:01:31.409Z,12.55
2023-02-18T00:04:00.027Z,12.58
2023-02-18T00:06:33.590Z,12.57
2023-02-18T00:09:02.560Z,12.57
2023-02-18T00:11:31.994Z,12.56
2023-02-18T00:14:01.464Z,12.55
2023-02-18T00:16:29.891Z,12.55
2023-02-18T00:19:03.351Z,12.55
2023-02-18T00:21:30.419Z,12.57
2023-02-18T00:23:57.078Z,12.55
2023-02-18T00:26:24.333Z,12.56
2023-02-18T00:28:54.376Z,12.58
2023-02-18T00:31:26.992Z,12.57
2023-02-18T00:33:54.322Z,12.57
2023-02-18T00:36:22.056Z,12.56
2023-02-18T00:39:01.175Z,12.56
2023-02-18T00:41:29.139Z,12.58
2023-02-18T00:43:56.426Z,12.57
2023-02-18T00:46:24.747Z,12.56
2023-02-18T00:48:54.001Z,12.56
2023-02-18T00:51:21.549Z,12.58
2023-02-18T00:53:48.816Z,12.58
2023-02-18T00:56:15.578Z,12.57
2023-02-18T00:58:42.603Z,12.57
2023-02-18T01:01:10.556Z,12.56
2023-02-18T01:03:38.621Z,12.56
2023-02-18T01:06:06.618Z,12.56
2023-02-18T01:08:35.118Z,12.57
2023-02-18T01:11:02.790Z,12.57
2023-02-18T01:13:30.076Z,12.56
2023-02-18T01:15:57.471Z,12.58
2023-02-18T01:18:26.196Z,12.57
2023-02-18T01:20:53.061Z,12.56
2023-02-18T01:23:20.298Z,12.56
2023-02-18T01:25:49.337Z,12.57
2023-02-18T01:28:16.451Z,12.56
2023-02-18T01:30:44.147Z,12.58
2023-02-18T01:33:12.301Z,12.56
2023-02-18T01:35:40.796Z,12.55
2023-02-18T01:38:08.145Z,12.55
2023-02-18T01:40:35.643Z,12.57
2023-02-18T01:43:02.576Z,12.56
2023-02-18T01:45:58.068Z,12.57
2023-02-18T01:48:34.240Z,12.57
2023-02-18T01:51:27.291Z,12.57
2023-02-18T01:54:29.136Z,12.55
2023-02-18T01:57:07.964Z,12.57
2023-02-18T01:59:48.029Z,12.56
2023-02-18T02:02:19.329Z,12.57
2023-02-18T02:04:47.392Z,12.58
2023-02-18T02:07:15.841Z,12.60
2023-02-18T02:09:43.432Z,12.59
2023-02-18T02:12:40.189Z,12.59
2023-02-18T02:15:19.005Z,12.57
2023-02-18T02:18:05.486Z,12.58
2023-02-18T02:20:59.975Z,12.58
2023-02-18T02:23:52.088Z,12.58
2023-02-18T02:26:41.684Z,12.60
2023-02-18T02:29:20.028Z,12.58
2023-02-18T02:32:08.240Z,12.60
2023-02-18T02:34:49.591Z,12.59
2023-02-18T02:37:31.502Z,12.58
2023-02-18T02:40:16.741Z,12.58
2023-02-18T02:42:47.785Z,12.59
2023-02-18T02:45:41.074Z,12.60
2023-02-18T02:48:22.996Z,12.59
2023-02-18T02:51:05.079Z,12.60
2023-02-18T02:53:35.140Z,12.58
2023-02-18T02:56:01.808Z,12.56
2023-02-18T02:58:29.463Z,12.59
2023-02-18T03:01:17.010Z,12.60
2023-02-18T03:04:08.802Z,12.59
2023-02-18T03:07:07.179Z,12.58
2023-02-18T03:09:39.444Z,12.58
2023-02-18T03:12:27.636Z,12.58
2023-02-18T03:15:08.232Z,12.57
2023-02-18T03:17:47.893Z,12.57
2023-02-18T03:20:28.444Z,12.59
2023-02-18T03:22:58.767Z,12.58
2023-02-18T03:25:26.680Z,12.59
2023-02-18T03:27:58.470Z,12.59
2023-02-18T03:30:49.013Z,12.57
2023-02-18T03:33:22.244Z,12.56
2023-02-18T03:35:50.252Z,12.57
2023-02-18T03:38:24.217Z,12.59
2023-02-18T03:40:51.077Z,12.56
2023-02-18T03:43:18.521Z,12.58
2023-02-18T03:45:45.378Z,12.58
2023-02-18T03:48:12.094Z,12.57
2023-02-18T03:50:38.891Z,12.57
2023-02-18T03:53:05.757Z,12.57
2023-02-18T03:55:32.568Z,12.55
2023-02-18T03:57:59.338Z,12.57
2023-02-18T04:00:25.951Z,12.56
2023-02-18T04:02:52.551Z,12.55
2023-02-18T04:05:19.339Z,12.56
2023-02-18T04:07:45.930Z,12.57
2023-02-18T04:10:13.030Z,12.57
2023-02-18T04:12:39.852Z,12.57
2023-02-18T04:15:06.814Z,12.56
2023-02-18T04:17:34.387Z,12.56
2023-02-18T04:20:01.050Z,12.56
2023-02-18T04:22:27.993Z,12.57
2023-02-18T04:24:55.070Z,12.56
2023-02-18T04:27:21.800Z,12.55
2023-02-18T04:29:48.634Z,12.58
2023-02-18T04:32:15.367Z,12.55
2023-02-18T04:34:42.238Z,12.55
2023-02-18T04:37:08.993Z,12.55
2023-02-18T04:39:35.617Z,12.55
2023-02-18T04:42:02.769Z,12.55
2023-02-18T04:44:29.396Z,12.56
2023-02-18T04:46:56.227Z,12.56
2023-02-18T04:49:23.054Z,12.56
2023-02-18T04:51:49.590Z,12.55
2023-02-18T04:54:16.276Z,12.55
2023-02-18T04:56:42.988Z,12.56
2023-02-18T04:59:09.692Z,12.56
2023-02-18T05:01:36.679Z,12.58
2023-02-18T05:04:03.585Z,12.54
2023-02-18T05:06:30.317Z,12.57
2023-02-18T05:08:57.066Z,12.56
2023-02-18T05:11:23.989Z,12.55
2023-02-18T05:13:50.844Z,12.59
2023-02-18T05:16:17.655Z,12.57
2023-02-18T05:18:44.398Z,12.56
2023-02-18T05:21:12.170Z,12.55
2023-02-18T05:23:38.827Z,12.55
2023-02-18T05:26:05.433Z,12.54
2023-02-18T05:28:32.091Z,12.55
2023-02-18T05:30:58.842Z,12.54
2023-02-18T05:33:26.070Z,12.56
2023-02-18T05:35:53.057Z,12.55
2023-02-18T05:38:20.228Z,12.55
2023-02-18T05:40:47.757Z,12.53
2023-02-18T05:43:14.590Z,12.54
2023-02-18T05:45:41.248Z,12.56
2023-02-18T05:48:08.022Z,12.55
2023-02-18T05:50:34.692Z,12.55
2023-02-18T05:53:01.593Z,12.55
2023-02-18T05:55:28.337Z,12.55
2023-02-18T05:57:55.105Z,12.55
2023-02-18T06:00:22.024Z,12.54
2023-02-18T06:02:48.855Z,12.55
2023-02-18T06:05:15.677Z,12.55
2023-02-18T06:07:42.359Z,12.53
2023-02-18T06:10:09.449Z,12.53
2023-02-18T06:12:36.237Z,12.53
2023-02-18T06:15:03.111Z,12.52
2023-02-18T06:17:29.914Z,12.53
2023-02-18T06:19:56.673Z,12.53
2023-02-18T06:22:23.322Z,12.52
2023-02-18T06:24:50.076Z,12.52
2023-02-18T06:27:16.867Z,12.52
2023-02-18T06:29:43.806Z,12.54
2023-02-18T06:32:10.631Z,12.62
2023-02-18T06:34:37.402Z,12.63
2023-02-18T06:37:04.126Z,12.60
2023-02-18T06:39:30.740Z,12.58
2023-02-18T06:41:57.570Z,12.57
2023-02-18T06:44:24.331Z,12.53
2023-02-18T06:46:51.028Z,12.51
2023-02-18T06:49:17.714Z,12.50
2023-02-18T06:51:44.472Z,12.51
2023-02-18T06:54:11.191Z,12.50
2023-02-18T06:56:37.913Z,12.50
2023-02-18T06:59:04.706Z,12.50
2023-02-18T07:01:31.326Z,12.50
2023-02-18T07:03:57.974Z,12.54
2023-02-18T07:06:24.687Z,12.56
2023-02-18T07:08:51.342Z,12.58
2023-02-18T07:11:18.080Z,12.59
2023-02-18T07:13:44.825Z,12.61
2023-02-18T07:16:12.057Z,12.63
2023-02-18T07:18:39.045Z,12.66
2023-02-18T07:21:05.914Z,12.72
2023-02-18T07:23:32.724Z,12.75
2023-02-18T07:26:08.873Z,12.76
2023-02-18T07:28:36.028Z,12.79
2023-02-18T07:31:03.726Z,12.83
2023-02-18T07:33:30.589Z,12.89
2023-02-18T07:35:58.800Z,12.91
2023-02-18T07:38:27.160Z,12.96
2023-02-18T07:40:54.804Z,13.01
2023-02-18T07:43:21.866Z,13.09
2023-02-18T07:45:48.965Z,13.22
2023-02-18T07:48:18.672Z,13.32
2023-02-18T07:50:46.425Z,13.34
2023-02-18T07:53:15.955Z,13.39
2023-02-18T07:55:49.353Z,13.47
2023-02-18T07:58:26.137Z,13.54
2023-02-18T08:00:54.268Z,13.59
2023-02-18T08:03:23.112Z,13.60
2023-02-18T08:05:51.607Z,13.66
2023-02-18T08:08:21.916Z,13.73
2023-02-18T08:10:49.572Z,13.71
2023-02-18T08:13:16.687Z,13.97
2023-02-18T08:15:43.840Z,14.10
2023-02-18T08:18:17.525Z,14.20
2023-02-18T08:20:44.356Z,14.29
2023-02-18T08:23:11.596Z,14.36
2023-02-18T08:25:38.536Z,14.49
2023-02-18T08:28:06.046Z,14.57
2023-02-18T08:30:32.998Z,14.65
2023-02-18T08:32:59.873Z,14.74
2023-02-18T08:35:26.737Z,14.79
2023-02-18T08:37:54.230Z,14.86
2023-02-18T08:40:21.829Z,14.75
2023-02-18T08:42:48.505Z,14.71
2023-02-18T08:45:15.446Z,14.72
2023-02-18T08:48:16.886Z,14.73
2023-02-18T08:50:28.870Z,14.70
2023-02-18T08:52:56.867Z,14.72
2023-02-18T08:55:25.102Z,14.67
2023-02-18T08:57:51.684Z,14.75
2023-02-18T09:00:19.110Z,14.77
2023-02-18T09:02:47.436Z,14.74
2023-02-18T09:05:14.710Z,14.76
2023-02-18T09:07:41.502Z,14.77
2023-02-18T09:10:09.548Z,14.79
2023-02-18T09:12:36.494Z,14.75
2023-02-18T09:15:04.803Z,14.79
2023-02-18T09:17:31.456Z,14.74
2023-02-18T09:19:58.037Z,14.66
2023-02-18T09:22:24.941Z,14.69
2023-02-18T09:24:51.847Z,14.65
2023-02-18T09:27:18.676Z,14.71
2023-02-18T09:29:45.369Z,14.68
2023-02-18T09:32:14.490Z,14.67
2023-02-18T09:34:46.504Z,14.70
2023-02-18T09:37:14.683Z,14.71
2023-02-18T09:39:41.473Z,14.69
2023-02-18T09:42:14.275Z,14.72
2023-02-18T09:44:47.482Z,14.74
2023-02-18T09:47:25.076Z,14.74
2023-02-18T09:49:58.064Z,14.78
2023-02-18T09:52:29.893Z,14.77
2023-02-18T09:54:56.814Z,14.76
2023-02-18T09:57:35.087Z,14.75
2023-02-18T10:00:08.272Z,14.77
2023-02-18T10:02:55.347Z,14.76
2023-02-18T10:05:24.824Z,14.80
2023-02-18T10:07:54.469Z,14.81
2023-02-18T10:10:46.417Z,14.81
2023-02-18T10:13:16.534Z,14.81
2023-02-18T10:15:43.718Z,14.87
2023-02-18T10:21:15.049Z,14.88
2023-02-18T10:23:50.341Z,14.91
2023-02-18T10:26:19.654Z,14.93
2023-02-18T10:28:46.688Z,14.97
2023-02-18T10:31:25.728Z,14.97
2023-02-18T10:33:58.452Z,15.00
2023-02-18T10:36:36.466Z,14.96
2023-02-18T10:39:07.720Z,15.04
2023-02-18T10:41:40.223Z,15.04
2023-02-18T10:44:38.437Z,15.05
2023-02-18T10:47:34.937Z,15.07
2023-02-18T10:50:35.241Z,15.03
2023-02-18T10:53:11.743Z,15.04
2023-02-18T10:55:44.638Z,15.10
2023-02-18T10:58:34.522Z,15.13
2023-02-18T11:01:08.475Z,15.23
2023-02-18T11:03:38.236Z,15.31
2023-02-18T11:06:05.466Z,15.35
2023-02-18T11:08:42.671Z,15.38
2023-02-18T11:11:17.395Z,15.40
2023-02-18T11:13:44.204Z,15.48
2023-02-18T11:16:12.587Z,15.47
2023-02-18T11:19:02.875Z,15.49
2023-02-18T11:21:37.185Z,15.55
2023-02-18T11:24:15.941Z,15.55
2023-02-18T11:26:44.782Z,15.50
2023-02-18T11:29:24.228Z,15.58
2023-02-18T11:31:55.674Z,15.66
2023-02-18T11:34:27.347Z,15.64
2023-02-18T11:36:54.712Z,15.72
2023-02-18T11:39:30.045Z,15.70
2023-02-18T11:42:01.178Z,15.73
2023-02-18T11:44:30.765Z,15.72
2023-02-18T11:46:59.532Z,15.76
2023-02-18T11:49:26.573Z,15.85
2023-02-18T11:51:53.480Z,15.79
2023-02-18T11:54:30.198Z,15.81
2023-02-18T11:57:03.969Z,15.83
2023-02-18T11:59:34.237Z,15.80
2023-02-18T12:02:03.528Z,15.75
2023-02-18T12:04:40.176Z,15.75
2023-02-18T12:07:13.324Z,15.78
2023-02-18T12:09:58.044Z,15.69
2023-02-18T12:12:24.803Z,15.75
2023-02-18T12:14:54.414Z,15.75
2023-02-18T12:17:38.171Z,15.72
2023-02-18T12:20:06.650Z,15.67
2023-02-18T12:23:13.728Z,15.65
2023-02-18T12:25:49.426Z,15.69
2023-02-18T12:28:22.341Z,15.76
2023-02-18T12:31:30.710Z,15.68
2023-02-18T12:34:10.351Z,15.66
2023-02-18T12:37:18.641Z,15.66
2023-02-18T12:39:55.349Z,15.66
2023-02-18T12:42:45.411Z,15.65
2023-02-18T12:45:20.990Z,15.68
2023-02-18T12:48:07.284Z,15.64
2023-02-18T12:50:55.969Z,15.63
2023-02-18T12:53:50.304Z,15.65
2023-02-18T12:56:34.340Z,15.69
2023-02-18T12:59:25.312Z,15.67
2023-02-18T13:02:23.399Z,15.68
2023-02-18T13:05:18.344Z,15.66
2023-02-18T13:08:13.964Z,15.74
2023-02-18T13:10:56.031Z,15.71
2023-02-18T13:13:26.096Z,15.71
2023-02-18T13:15:55.440Z,15.76
2023-02-18T13:18:24.695Z,15.78
2023-02-18T13:20:56.426Z,15.78
2023-02-18T13:23:27.888Z,15.81
2023-02-18T13:26:01.128Z,15.83
2023-02-18T13:28:30.724Z,15.83
2023-02-18T13:31:34.969Z,15.83
2023-02-18T13:34:29.744Z,15.82
2023-02-18T13:37:06.859Z,15.81
2023-02-18T13:39:34.609Z,15.88
2023-02-18T13:42:18.326Z,15.91
2023-02-18T13:44:56.928Z,15.90
2023-02-18T13:47:46.414Z,15.95
2023-02-18T13:50:28.338Z,15.87
2023-02-18T13:53:09.306Z,15.90
2023-02-18T13:55:53.032Z,15.87
2023-02-18T13:58:24.699Z,15.91
2023-02-18T14:01:00.961Z,15.85
2023-02-18T14:03:30.796Z,15.84
2023-02-18T14:05:57.796Z,15.81
2023-02-18T14:08:38.878Z,15.80
2023-02-18T14:11:11.842Z,15.77
2023-02-18T14:13:41.544Z,15.73
2023-02-18T14:16:09.542Z,15.69
2023-02-18T14:18:39.177Z,15.71
2023-02-18T14:21:21.206Z,15.79
2023-02-18T14:24:00.039Z,15.82
2023-02-18T14:26:32.548Z,15.84
2023-02-18T14:29:11.865Z,15.86
2023-02-18T14:31:47.739Z,15.90
2023-02-18T14:34:23.622Z,15.91
2023-02-18T14:37:11.830Z,15.94
2023-02-18T14:39:41.508Z,16.01
2023-02-18T14:42:30.320Z,16.02
2023-02-18T14:45:05.224Z,16.05
2023-02-18T14:47:50.269Z,16.08
2023-02-18T14:50:19.974Z,16.05
2023-02-18T14:52:54.287Z,16.00
2023-02-18T14:55:25.586Z,15.79
2023-02-18T14:58:01.545Z,15.65
2023-02-18T15:00:32.368Z,15.57
2023-02-18T15:03:01.888Z,15.56
2023-02-18T15:05:37.131Z,15.54
2023-02-18T15:08:14.793Z,15.57
2023-02-18T15:10:53.656Z,15.59
2023-02-18T15:13:24.574Z,15.63
2023-02-18T15:15:54.666Z,15.68
2023-02-18T15:18:40.391Z,15.72
2023-02-18T15:21:10.228Z,15.72
2023-02-18T15:23:39.485Z,15.76
2023-02-18T15:26:12.796Z,15.75
2023-02-18T15:28:58.160Z,15.81
2023-02-18T15:31:30.283Z,15.84
2023-02-18T15:33:57.412Z,15.89
2023-02-18T15:36:26.147Z,15.93
2023-02-18T15:38:53.398Z,15.98
2023-02-18T15:41:23.001Z,16.02
2023-02-18T15:44:03.139Z,16.08
2023-02-18T15:46:30.413Z,16.16
2023-02-18T15:48:57.750Z,16.13
2023-02-18T15:51:31.679Z,16.15
2023-02-18T15:54:02.813Z,16.23
2023-02-18T15:56:32.071Z,16.26
2023-02-18T15:59:09.259Z,16.24
2023-02-18T16:01:36.421Z,16.23
2023-02-18T16:04:05.884Z,16.31
2023-02-18T16:06:36.120Z,16.30
2023-02-18T16:09:13.329Z,16.37
2023-02-18T16:11:43.716Z,16.45
2023-02-18T16:14:35.457Z,16.41
2023-02-18T16:17:21.328Z,16.41
2023-02-18T16:20:04.923Z,16.34
2023-02-18T16:22:33.375Z,16.37
2023-02-18T16:25:07.425Z,16.41
2023-02-18T16:27:37.143Z,16.43
2023-02-18T16:30:29.074Z,16.49
2023-02-18T16:32:57.922Z,16.51
2023-02-18T16:35:27.861Z,16.48
2023-02-18T16:37:59.968Z,16.48
2023-02-18T16:40:31.012Z,16.44
2023-02-18T16:43:12.679Z,16.44
2023-02-18T16:45:46.072Z,16.42
2023-02-18T16:48:17.282Z,16.37
2023-02-18T16:50:44.034Z,16.34
2023-02-18T16:53:13.489Z,16.34
2023-02-18T16:55:40.611Z,16.30
2023-02-18T16:58:07.335Z,16.29
2023-02-18T17:00:34.391Z,16.22
2023-02-18T17:03:01.571Z,16.22
2023-02-18T17:05:31.673Z,16.16
2023-02-18T17:08:14.460Z,16.11
2023-02-18T17:10:41.399Z,16.04
2023-02-18T17:13:15.076Z,16.02
2023-02-18T17:15:43.535Z,15.99
2023-02-18T17:18:10.704Z,15.96
2023-02-18T17:20:37.400Z,15.95
2023-02-18T17:23:04.049Z,15.94
2023-02-18T17:25:34.606Z,15.87
2023-02-18T17:28:01.328Z,15.83
2023-02-18T17:30:30.543Z,15.80
2023-02-18T17:33:02.430Z,15.76
2023-02-18T17:35:30.139Z,15.71
2023-02-18T17:37:56.921Z,15.69
2023-02-18T17:40:26.494Z,15.62
2023-02-18T17:42:55.278Z,15.62
2023-02-18T17:45:32.138Z,15.60
2023-02-18T17:48:00.671Z,15.75
2023-02-18T17:50:29.053Z,15.80
2023-02-18T17:52:55.740Z,15.75
2023-02-18T17:55:25.639Z,15.77
2023-02-18T17:57:52.969Z,15.84
2023-02-18T18:00:23.917Z,15.97
2023-02-18T18:02:50.766Z,15.86
2023-02-18T18:05:24.413Z,15.80
2023-02-18T18:07:51.879Z,15.79
2023-02-18T18:10:28.514Z,15.76
2023-02-18T18:12:55.329Z,15.76
2023-02-18T18:15:34.826Z,15.79
2023-02-18T18:18:02.082Z,15.81
2023-02-18T18:20:31.683Z,15.85
2023-02-18T18:23:00.818Z,15.87
2023-02-18T18:25:55.929Z,15.93
2023-02-18T18:28:23.628Z,15.97
2023-02-18T18:30:52.438Z,16.02
2023-02-18T18:33:24.227Z,15.97
2023-02-18T18:35:53.533Z,15.98
2023-02-18T18:38:22.341Z,15.98
2023-02-18T18:40:50.530Z,16.00
2023-02-18T18:43:20.820Z,16.03
2023-02-18T18:45:48.747Z,16.05
2023-02-18T18:48:16.414Z,16.10
2023-02-18T18:50:44.049Z,16.08
2023-02-18T18:53:20.040Z,16.20
2023-02-18T18:55:47.380Z,16.12
2023-02-18T18:58:14.313Z,16.16
2023-02-18T19:00:43.513Z,16.10
2023-02-18T19:03:11.694Z,16.10
2023-02-18T19:05:41.179Z,16.10
2023-02-18T19:08:09.517Z,16.16
2023-02-18T19:10:42.284Z,16.16
2023-02-18T19:13:15.457Z,16.12
2023-02-18T19:15:42.381Z,16.14
2023-02-18T19:18:13.638Z,16.17
2023-02-18T19:20:42.680Z,16.16
2023-02-18T19:23:09.793Z,16.20
2023-02-18T19:25:37.824Z,16.24
2023-02-18T19:28:05.456Z,16.17
2023-02-18T19:30:34.838Z,16.21
2023-02-18T19:33:02.584Z,16.17
2023-02-18T19:35:30.823Z,16.22
2023-02-18T19:37:58.952Z,16.29
2023-02-18T19:40:30.091Z,16.26
2023-02-18T19:42:57.251Z,16.28
2023-02-18T19:45:24.504Z,16.27
2023-02-18T19:47:56.412Z,16.24
2023-02-18T19:50:24.106Z,16.31
2023-02-18T19:52:55.435Z,16.29
2023-02-18T19:55:23.354Z,16.27
2023-02-18T19:57:51.165Z,16.21
2023-02-18T20:00:22.280Z,16.27
2023-02-18T20:02:50.168Z,16.27
2023-02-18T20:05:18.108Z,16.28
2023-02-18T20:07:46.739Z,16.24
2023-02-18T20:10:16.283Z,16.30
2023-02-18T20:12:43.128Z,16.31
2023-02-18T20:15:10.308Z,16.31
2023-02-18T20:17:39.383Z,16.31
2023-02-18T20:20:06.626Z,16.34
2023-02-18T20:22:33.509Z,16.33
2023-02-18T20:25:00.326Z,16.34
2023-02-18T20:27:27.085Z,16.34
2023-02-18T20:29:53.976Z,16.38
2023-02-18T20:32:20.630Z,16.33
2023-02-18T20:34:47.471Z,16.36
2023-02-18T20:37:14.146Z,16.36
2023-02-18T20:39:40.980Z,16.37
2023-02-18T20:42:16.024Z,16.39
2023-02-18T20:44:44.280Z,16.34
2023-02-18T20:47:13.697Z,16.35
2023-02-18T20:49:41.077Z,16.28
2023-02-18T20:52:09.174Z,16.27
2023-02-18T20:54:36.314Z,16.20
2023-02-18T20:57:03.215Z,16.20
2023-02-18T20:59:30.343Z,16.15
2023-02-18T21:01:57.246Z,16.15
2023-02-18T21:04:24.157Z,16.11
2023-02-18T21:06:51.090Z,16.08
2023-02-18T21:09:18.786Z,15.97
2023-02-18T21:11:45.977Z,15.86
2023-02-18T21:14:12.791Z,15.78
2023-02-18T21:16:40.014Z,15.72
2023-02-18T21:19:09.395Z,15.70
2023-02-18T21:21:35.921Z,15.65
2023-02-18T21:24:03.119Z,15.63
2023-02-18T21:26:30.428Z,15.59
2023-02-18T21:29:01.118Z,15.54
2023-02-18T21:31:32.080Z,15.50
2023-02-18T21:33:59.441Z,15.47
2023-02-18T21:36:27.187Z,15.45
2023-02-18T21:38:56.415Z,15.43
2023-02-18T21:41:23.848Z,15.39
2023-02-18T21:43:51.417Z,15.36
2023-02-18T21:46:21.066Z,15.34
2023-02-18T21:49:03.317Z,15.30
2023-02-18T21:51:57.174Z,15.32
2023-02-18T21:54:28.542Z,15.29
2023-02-18T21:56:56.349Z,15.26
2023-02-18T21:59:26.837Z,15.25
2023-02-18T22:01:54.165Z,15.22
2023-02-18T22:04:21.290Z,15.18
2023-02-18T22:06:47.980Z,15.16
2023-02-18T22:09:15.195Z,15.12
2023-02-18T22:11:43.050Z,15.08
2023-02-18T22:14:11.607Z,15.07
2023-02-18T22:16:39.220Z,15.05
2023-02-18T22:19:06.806Z,15.01
2023-02-18T22:21:34.012Z,15.01
2023-02-18T22:24:00.766Z,14.99
2023-02-18T22:26:27.569Z,14.97
2023-02-18T22:28:56.540Z,14.94
2023-02-18T22:31:25.200Z,14.91
2023-02-18T22:33:52.493Z,14.88
2023-02-18T22:36:21.708Z,14.88
2023-02-18T22:38:48.606Z,14.86
2023-02-18T22:41:17.721Z,14.82
2023-02-18T22:43:44.561Z,14.82
2023-02-18T22:46:14.151Z,14.80
2023-02-18T22:48:41.294Z,14.79
2023-02-18T22:51:20.275Z,14.77
2023-02-18T22:53:47.168Z,14.77
2023-02-18T22:56:16.314Z,14.72
2023-02-18T22:58:43.659Z,14.72
2023-02-18T23:01:21.079Z,14.75
2023-02-18T23:03:47.963Z,14.73
2023-02-18T23:06:15.181Z,14.73
2023-02-18T23:08:42.044Z,14.71
2023-02-18T23:11:12.021Z,14.71
2023-02-18T23:13:39.274Z,14.68
2023-02-18T23:16:09.350Z,14.66
2023-02-18T23:18:36.168Z,14.65
2023-02-18T23:21:17.790Z,14.62
2023-02-18T23:23:46.489Z,14.61
2023-02-18T23:26:14.421Z,14.58
2023-02-18T23:28:50.661Z,14.56
2023-02-18T23:31:23.502Z,14.54
2023-02-18T23:33:54.585Z,14.52
2023-02-18T23:36:24.233Z,14.50
2023-02-18T23:38:56.534Z,14.49
2023-02-18T23:41:23.921Z,14.47
2023-02-18T23:43:51.420Z,14.49
2023-02-18T23:46:20.732Z,14.46
2023-02-18T23:48:47.731Z,14.45
2023-02-18T23:51:16.402Z,14.42
2023-02-18T23:53:43.598Z,14.42
2023-02-18T23:56:24.707Z,14.43
2023-02-18T23:59:02.246Z,14.40
